Time;durP1;ratioP1;P1;durP2;ratioP2;P2;SDS_P1;SDS_P2;PMS_P1;PMS_P2;Temp;Humidity;BMP_temperature;BMP_pressure;BME280_temperature;BME280_humidity;BME280_pressure;Samples;Min_cycle;Max_cycle;Signal;HPM_P1;HPM_P2
2022/04/18 00:01:59;;;;;;;1.73;1.15;;;;;;;22.71;17.12;101447.75;5033489;28;20072;-80
2022/04/18 00:04:24;;;;;;;2.42;1.48;;;;;;;22.71;17.09;101447.75;5048971;28;20417;-79
2022/04/18 00:06:49;;;;;;;1.50;1.30;;;;;;;22.69;17.20;101440.63;5033444;28;20026;-79
2022/04/18 00:09:15;;;;;;;1.23;1.10;;;;;;;22.71;17.34;101447.75;5033984;28;20530;-79
2022/04/18 00:11:40;;;;;;;2.30;1.40;;;;;;;22.72;17.30;101443.97;5033515;28;20018;-79
2022/04/18 00:14:06;;;;;;;1.40;1.10;;;;;;;22.71;17.32;101442.31;5033511;28;20372;-80
2022/04/18 00:16:31;;;;;;;1.80;1.35;;;;;;;22.71;17.45;101437.66;5048364;28;20401;-79
2022/04/18 00:18:57;;;;;;;1.83;1.42;;;;;;;22.70;17.27;101436.03;5033381;28;20109;-79
2022/04/18 00:21:23;;;;;;;1.63;1.23;;;;;;;22.69;17.25;101443.34;5033355;28;20025;-81
2022/04/18 00:23:48;;;;;;;1.90;1.42;;;;;;;22.69;17.39;101445.25;5036238;28;20025;-79
2022/04/18 00:26:14;;;;;;;1.95;1.40;;;;;;;22.67;17.38;101431.88;5037318;28;20033;-80
2022/04/18 00:28:40;;;;;;;1.52;1.25;;;;;;;22.69;17.35;101440.63;5037144;28;20399;-80
2022/04/18 00:31:05;;;;;;;1.50;1.27;;;;;;;22.70;17.40;101436.03;5035861;28;20598;-80
2022/04/18 00:33:31;;;;;;;1.92;1.48;;;;;;;22.71;17.37;101436.84;5037081;28;20024;-79
2022/04/18 00:35:56;;;;;;;1.65;1.27;;;;;;;22.69;17.35;101434.38;5037707;28;20021;-80
2022/04/18 00:38:22;;;;;;;1.48;1.13;;;;;;;22.68;17.42;101439.00;5036838;28;20364;-79
2022/04/18 00:40:48;;;;;;;1.98;1.33;;;;;;;22.68;17.27;101428.09;5036801;28;20029;-79
2022/04/18 00:43:13;;;;;;;2.47;1.30;;;;;;;22.67;17.27;101431.88;5036625;28;20500;-79
2022/04/18 00:45:38;;;;;;;2.17;1.50;;;;;;;22.69;17.22;101429.72;5026691;28;20453;-79
2022/04/18 00:48:04;;;;;;;1.90;1.38;;;;;;;22.68;17.30;101433.53;5017512;28;20453;-79
2022/04/18 00:50:30;;;;;;;1.75;1.30;;;;;;;22.67;17.30;101429.16;5017033;28;20526;-79
2022/04/18 00:52:55;;;;;;;1.20;1.08;;;;;;;22.68;17.33;101430.81;5015501;28;20492;-80
2022/04/18 00:55:22;;;;;;;1.20;1.10;;;;;;;22.69;17.28;101434.38;5015719;28;20022;-79
2022/04/18 00:57:47;;;;;;;1.80;1.30;;;;;;;22.67;17.29;101431.06;5015220;28;20465;-79
2022/04/18 01:00:13;;;;;;;1.38;1.13;;;;;;;22.65;17.18;101434.03;5016732;28;20022;-79
2022/04/18 01:02:38;;;;;;;1.08;0.95;;;;;;;22.66;17.13;101441.13;5016760;28;20124;-79
2022/04/18 01:05:04;;;;;;;1.70;1.10;;;;;;;22.66;17.15;101441.13;5016668;28;20033;-79
2022/04/18 01:07:30;;;;;;;1.40;1.05;;;;;;;22.67;17.22;101437.31;5015172;28;20037;-79
2022/04/18 01:09:55;;;;;;;1.55;1.10;;;;;;;22.68;17.09;101433.53;5015597;28;20453;-79
2022/04/18 01:12:21;;;;;;;1.30;0.98;;;;;;;22.67;17.19;101437.31;5016625;28;20441;-80
2022/04/18 01:14:47;;;;;;;1.30;1.00;;;;;;;22.67;17.08;101429.16;5015884;28;20372;-79
2022/04/18 01:17:13;;;;;;;1.38;1.08;;;;;;;22.67;17.15;101437.31;5014959;28;20022;-79
2022/04/18 01:19:39;;;;;;;0.80;0.80;;;;;;;22.66;17.15;101438.41;5015501;28;20022;-79
2022/04/18 01:22:05;;;;;;;1.25;1.00;;;;;;;22.67;17.30;101431.06;5016508;28;20030;-79
2022/04/18 01:30:02;;;;;;;;;;;;;;;22.90;17.06;101421.94;5001827;28;20112;-79
2022/04/18 01:32:27;;;;;;;0.80;0.80;;;;;;;22.74;16.93;101423.56;5017148;28;20011;-79
2022/04/18 01:34:53;;;;;;;1.00;0.80;;;;;;;22.72;16.98;101433.06;5014974;28;20014;-79
2022/04/18 01:37:18;;;;;;;0.85;0.80;;;;;;;22.69;17.04;101423.47;5015849;28;20033;-79
2022/04/18 01:39:43;;;;;;;1.00;0.90;;;;;;;22.68;16.97;101414.47;5014883;28;20037;-79
2022/04/18 01:42:09;;;;;;;0.70;0.70;;;;;;;22.66;17.24;101413.91;5014729;28;20409;-80
2022/04/18 01:44:34;;;;;;;0.98;0.77;;;;;;;22.66;16.96;101413.91;5015772;28;20435;-79
2022/04/18 01:47:00;;;;;;;1.00;0.90;;;;;;;22.67;17.10;101415.53;5035105;28;20025;-79
2022/04/18 01:49:26;;;;;;;1.10;1.00;;;;;;;22.66;17.01;101413.91;5051172;28;20036;-79
2022/04/18 01:51:51;;;;;;;1.17;0.95;;;;;;;22.66;16.93;101423.94;5035332;28;20045;-79
2022/04/18 01:54:17;;;;;;;1.27;0.88;;;;;;;22.67;16.89;101407.34;5035113;28;20068;-79
2022/04/18 01:56:43;;;;;;;0.88;0.75;;;;;;;22.65;16.81;101412.22;5035569;28;20049;-79
2022/04/18 01:59:08;;;;;;;0.73;0.73;;;;;;;22.66;16.81;101408.44;5035737;28;20357;-80
2022/04/18 02:01:34;;;;;;;1.00;0.85;;;;;;;22.65;16.75;101411.41;5035147;28;20026;-79
2022/04/18 02:03:59;;;;;;;0.70;0.70;;;;;;;22.67;16.82;101409.25;5035493;28;20040;-78
2022/04/18 02:06:24;;;;;;;0.77;0.73;;;;;;;22.66;16.72;101405.72;5050566;28;20018;-79
2022/04/18 02:08:50;;;;;;;0.80;0.80;;;;;;;22.65;16.70;101406.78;5035209;28;20026;-79
2022/04/18 02:11:15;;;;;;;0.73;0.73;;;;;;;22.66;16.88;101396.69;5033788;28;20022;-79
2022/04/18 02:13:41;;;;;;;0.95;0.82;;;;;;;22.65;16.74;101395.88;5034181;28;20121;-79
2022/04/18 02:16:06;;;;;;;0.68;0.65;;;;;;;22.66;17.06;101397.56;5034992;28;20044;-79
2022/04/18 02:18:32;;;;;;;0.70;0.70;;;;;;;22.63;16.81;101395.31;5034165;28;20432;-79
2022/04/18 02:20:57;;;;;;;0.85;0.80;;;;;;;22.65;16.97;101397.78;5034945;28;20029;-79
2022/04/18 02:23:22;;;;;;;1.05;0.90;;;;;;;22.64;16.83;101391.50;5039926;28;20037;-79
2022/04/18 02:25:48;;;;;;;0.60;0.60;;;;;;;22.65;16.69;101389.63;5035030;28;20029;-79
2022/04/18 02:28:13;;;;;;;0.70;0.70;;;;;;;22.64;16.75;101391.50;5036744;28;20033;-79
2022/04/18 02:30:39;;;;;;;0.90;0.80;;;;;;;22.64;16.75;101380.59;5035274;28;20463;-79
2022/04/18 02:33:04;;;;;;;0.75;0.75;;;;;;;22.65;16.93;101379.53;5035068;28;20427;-79
2022/04/18 02:35:30;;;;;;;0.65;0.65;;;;;;;22.63;16.96;101387.13;5034658;28;20502;-79
2022/04/18 02:37:55;;;;;;;0.73;0.70;;;;;;;22.65;16.97;101379.53;5035315;28;20026;-79
2022/04/18 02:40:21;;;;;;;0.63;0.60;;;;;;;22.63;16.93;101381.69;5035106;28;20036;-79
2022/04/18 02:42:46;;;;;;;1.08;0.70;;;;;;;22.61;17.02;101378.38;5034507;28;20107;-79
2022/04/18 02:45:14;;;;;;;0.70;0.50;;;;;;;22.62;17.04;101382.75;5030304;28;20098;-79
2022/04/18 02:47:39;;;;;;;0.60;0.60;;;;;;;22.61;16.98;101372.09;5014903;28;20361;-79
2022/04/18 02:50:06;;;;;;;0.57;0.50;;;;;;;22.62;16.91;101385.47;5013676;28;20055;-79
2022/04/18 02:52:31;;;;;;;0.88;0.77;;;;;;;22.62;16.94;101374.56;5014823;28;20042;-79
2022/04/18 02:54:57;;;;;;;0.60;0.60;;;;;;;22.62;16.83;101382.75;5013526;28;20092;-79
2022/04/18 02:57:22;;;;;;;0.70;0.70;;;;;;;22.61;17.01;101372.94;5014513;28;20018;-79
2022/04/18 02:59:48;;;;;;;0.68;0.65;;;;;;;22.63;16.84;101383.59;5014765;28;20033;-79
2022/04/18 03:02:13;;;;;;;0.60;0.50;;;;;;;22.63;16.97;101380.88;5014481;28;20025;-79
2022/04/18 03:04:38;;;;;;;0.70;0.70;;;;;;;22.62;16.87;101382.75;5014193;28;20038;-79
2022/04/18 03:07:04;;;;;;;0.75;0.52;;;;;;;22.62;16.66;101380.00;5014556;28;20133;-78
2022/04/18 03:09:30;;;;;;;0.60;0.60;;;;;;;22.62;16.71;101374.56;5014699;28;20345;-80
2022/04/18 03:11:56;;;;;;;0.90;0.77;;;;;;;22.62;16.58;101374.56;5014494;28;20383;-80
2022/04/18 03:14:23;;;;;;;0.43;0.43;;;;;;;22.61;16.71;101367.50;5013173;28;20100;-78
2022/04/18 03:16:48;;;;;;;0.60;0.60;;;;;;;22.60;16.67;101363.09;5014337;28;20365;-79
2022/04/18 03:19:13;;;;;;;0.50;0.50;;;;;;;22.61;16.62;101359.31;5014192;28;20029;-79
2022/04/18 03:21:40;;;;;;;0.55;0.43;;;;;;;22.62;16.87;101357.41;5013853;28;20026;-79
2022/04/18 03:24:06;;;;;;;0.60;0.57;;;;;;;22.61;16.71;101366.63;5014048;28;20476;-79
2022/04/18 03:26:31;;;;;;;0.55;0.50;;;;;;;22.61;16.75;101364.75;5012811;28;20037;-79
2022/04/18 03:28:57;;;;;;;1.65;0.47;;;;;;;22.59;16.74;101364.16;5014272;28;20029;-79
2022/04/18 03:31:22;;;;;;;0.47;0.47;;;;;;;22.61;16.60;101372.94;5013219;28;20034;-79
2022/04/18 03:33:48;;;;;;;0.43;0.43;;;;;;;22.61;16.61;101367.50;5014358;28;20037;-79
2022/04/18 03:41:41;;;;;;;0.40;0.40;;;;;;;22.63;16.46;101362.63;5013729;28;20049;-80
2022/04/18 03:44:07;;;;;;;0.80;0.60;;;;;;;22.58;16.52;101362.53;5014121;28;20029;-79
2022/04/18 03:46:32;;;;;;;0.70;0.70;;;;;;;22.61;16.83;101362.03;5027012;28;20017;-79
2022/04/18 03:48:57;;;;;;;0.70;0.60;;;;;;;22.60;16.84;101354.09;5033827;28;20025;-79
2022/04/18 03:51:23;;;;;;;0.50;0.50;;;;;;;22.61;16.95;101356.59;5033711;28;20103;-80
2022/04/18 03:53:49;;;;;;;0.38;0.38;;;;;;;22.59;17.22;101353.25;5033164;28;20488;-79
2022/04/18 03:56:15;;;;;;;0.40;0.40;;;;;;;22.59;17.53;101353.25;5033825;28;20041;-79
2022/04/18 03:58:40;;;;;;;0.30;0.30;;;;;;;22.59;17.77;101358.72;5032834;28;20392;-79
2022/04/18 04:01:05;;;;;;;0.50;0.50;;;;;;;22.61;17.91;101359.31;5033778;28;20029;-79
2022/04/18 04:03:31;;;;;;;0.38;0.38;;;;;;;22.60;18.19;101352.19;5033690;28;20091;-79
2022/04/18 04:05:56;;;;;;;0.45;0.45;;;;;;;22.61;18.27;101356.59;5033628;28;20025;-79
2022/04/18 04:08:25;;;;;;;0.45;0.40;;;;;;;22.59;18.27;101352.44;5032356;28;20029;-79
2022/04/18 04:10:51;;;;;;;0.50;0.47;;;;;;;22.59;18.49;101344.25;5033731;28;20037;-79
2022/04/18 04:13:17;;;;;;;0.30;0.30;;;;;;;22.59;18.65;101345.09;5033620;28;20025;-79
2022/04/18 04:15:43;;;;;;;0.38;0.38;;;;;;;22.61;18.57;101344.84;5033465;28;20464;-79
2022/04/18 04:18:08;;;;;;;0.30;0.30;;;;;;;22.59;18.84;101339.63;5033662;28;20052;-79
2022/04/18 04:20:34;;;;;;;0.40;0.40;;;;;;;22.61;18.98;101339.41;5033448;28;20512;-79
2022/04/18 04:22:59;;;;;;;0.22;0.22;;;;;;;22.61;19.19;101345.69;5033601;28;20029;-79
2022/04/18 04:25:25;;;;;;;0.30;0.30;;;;;;;22.61;19.23;101345.69;5033321;28;20383;-79
2022/04/18 04:27:50;;;;;;;0.60;0.30;;;;;;;22.61;19.37;101342.13;5033374;28;20376;-79
2022/04/18 04:30:16;;;;;;;0.40;0.40;;;;;;;22.61;19.42;101344.84;5033620;28;20026;-78
2022/04/18 04:32:41;;;;;;;0.80;0.30;;;;;;;22.61;19.46;101340.25;5033609;28;20380;-79
2022/04/18 04:35:07;;;;;;;0.30;0.30;;;;;;;22.63;19.65;101342.72;5032881;28;20025;-79
2022/04/18 04:37:32;;;;;;;0.40;0.40;;;;;;;22.62;19.95;101341.06;5033213;28;20025;-79
2022/04/18 04:39:57;;;;;;;0.35;0.35;;;;;;;22.61;19.81;101339.41;5033497;28;20522;-79
2022/04/18 04:42:23;;;;;;;0.30;0.30;;;;;;;22.63;19.91;101331.81;5032909;28;20396;-79
2022/04/18 04:44:48;;;;;;;0.32;0.32;;;;;;;;;;5033036;28;20108;-79
2022/04/18 04:47:14;;;;;;;0.30;0.30;;;;;;;22.65;20.04;101343.31;5013628;28;20049;-79
2022/04/18 04:49:39;;;;;;;0.40;0.40;;;;;;;22.62;20.13;101341.88;5013201;28;20556;-79
2022/04/18 04:52:05;;;;;;;0.30;0.30;;;;;;;22.61;20.27;101334.78;5013359;28;20030;-79
2022/04/18 04:54:34;;;;;;;0.38;0.38;;;;;;;22.61;20.15;101342.97;5013070;28;20056;-79
2022/04/18 04:56:59;;;;;;;0.30;0.30;;;;;;;22.62;20.20;101336.44;5011747;28;20037;-79
2022/04/18 04:59:25;;;;;;;0.30;0.30;;;;;;;22.63;20.35;101337.28;5013005;28;20018;-79
2022/04/18 05:01:50;;;;;;;0.20;0.20;;;;;;;22.61;20.33;101337.50;5013049;28;20026;-79
2022/04/18 05:04:16;;;;;;;0.28;0.28;;;;;;;22.63;20.33;101338.09;5013163;28;20038;-79
2022/04/18 05:06:41;;;;;;;0.20;0.20;;;;;;;22.61;20.25;101334.78;5011920;28;20030;-79
2022/04/18 05:09:07;;;;;;;0.40;0.40;;;;;;;22.62;20.36;101336.44;5014591;28;20030;-79
2022/04/18 05:11:33;;;;;;;0.25;0.20;;;;;;;22.62;20.45;101333.69;5017518;28;20026;-79
2022/04/18 05:13:58;;;;;;;0.20;0.20;;;;;;;22.62;20.52;101333.69;5017337;28;20105;-79
2022/04/18 05:16:24;;;;;;;0.30;0.30;;;;;;;22.62;20.58;101332.88;5016119;28;20037;-79
2022/04/18 05:18:49;;;;;;;0.30;0.30;;;;;;;22.63;20.49;101324.47;5017537;28;20037;-79
2022/04/18 05:21:15;;;;;;;0.30;0.30;;;;;;;22.62;20.58;101325.53;5016369;28;20026;-78
2022/04/18 05:23:40;;;;;;;0.40;0.30;;;;;;;22.64;20.55;101328.81;5017283;28;20032;-78
2022/04/18 05:26:06;;;;;;;0.30;0.30;;;;;;;22.61;20.57;101321.16;5017194;28;20025;-79
2022/04/18 05:28:31;;;;;;;0.30;0.30;;;;;;;22.63;20.53;101323.66;5017363;28;20034;-79
2022/04/18 05:30:57;;;;;;;0.20;0.20;;;;;;;22.63;20.59;101329.09;5016334;28;20038;-79
2022/04/18 05:33:23;;;;;;;0.30;0.30;;;;;;;22.62;20.66;101322.81;5016841;28;20094;-79
2022/04/18 05:35:49;;;;;;;0.20;0.20;;;;;;;22.62;20.54;101325.53;5017143;28;20033;-79
2022/04/18 05:38:15;;;;;;;0.20;0.20;;;;;;;22.61;20.61;101323.91;5016780;28;20105;-79
2022/04/18 05:40:41;;;;;;;0.22;0.22;;;;;;;22.59;20.69;101306.94;5017314;28;20030;-79
2022/04/18 05:43:08;;;;;;;0.30;0.30;;;;;;;22.62;20.72;101313.81;5016713;28;20057;-79
2022/04/18 05:45:34;;;;;;;0.20;0.20;;;;;;;22.62;20.72;101316.53;5022272;28;20025;-79
2022/04/18 05:47:59;;;;;;;0.38;0.30;;;;;;;22.62;20.75;101311.91;5037190;28;20542;-79
2022/04/18 05:50:25;;;;;;;0.20;0.20;;;;;;;22.62;20.68;101320.09;5036598;28;20021;-79
2022/04/18 05:52:50;;;;;;;0.30;0.30;;;;;;;22.63;20.87;101313.56;5036717;28;20384;-78
2022/04/18 05:55:16;;;;;;;0.20;0.20;;;;;;;22.61;20.76;101313.00;5052443;28;20033;-79
2022/04/18 05:57:41;;;;;;;0.30;0.30;;;;;;;22.63;20.86;101321.75;5036725;28;20029;-79
2022/04/18 06:00:07;;;;;;;0.30;0.30;;;;;;;22.61;20.75;101323.91;5036695;28;20022;-79
2022/04/18 06:02:32;;;;;;;0.20;0.20;;;;;;;22.62;20.81;101325.53;5037550;28;20475;-79
2022/04/18 06:04:58;;;;;;;0.30;0.30;;;;;;;22.63;20.86;101313.56;5036423;28;20040;-79
2022/04/18 06:07:23;;;;;;;0.28;0.28;;;;;;;22.65;20.68;101316.88;5036276;28;20034;-79
2022/04/18 06:09:49;;;;;;;0.28;0.28;;;;;;;22.63;20.62;101321.75;5035922;28;20025;-79
2022/04/18 06:12:19;;;;;;;0.30;0.30;;;;;;;22.65;20.76;101322.31;5035918;28;20026;-79
2022/04/18 06:14:44;;;;;;;0.30;0.30;;;;;;;22.63;20.70;101321.75;5036105;28;20090;-78
2022/04/18 06:17:10;;;;;;;0.20;0.20;;;;;;;22.65;20.72;101324.22;5036127;28;20029;-79
2022/04/18 06:19:35;;;;;;;0.20;0.20;;;;;;;22.66;20.67;101336.75;5036225;28;20018;-79
2022/04/18 06:22:01;;;;;;;0.28;0.28;;;;;;;22.66;20.72;101331.31;5035470;28;20022;-79
2022/04/18 06:24:26;;;;;;;0.20;0.20;;;;;;;22.63;20.60;101329.91;5036166;28;20325;-79
2022/04/18 06:26:52;;;;;;;0.30;0.30;;;;;;;22.64;20.78;101328.81;5035993;28;20025;-79
2022/04/18 06:29:20;;;;;;;0.30;0.30;;;;;;;;;;5036542;28;20083;-79
2022/04/18 06:31:46;;;;;;;0.20;0.20;;;;;;;22.66;20.71;101331.31;5035918;28;20144;-79
2022/04/18 06:34:12;;;;;;;0.32;0.28;;;;;;;22.67;20.88;101332.97;5034762;28;20411;-79
2022/04/18 06:36:38;;;;;;;0.22;0.22;;;;;;;22.65;20.72;101325.03;5035389;28;20472;-79
2022/04/18 06:39:03;;;;;;;0.30;0.30;;;;;;;22.62;20.89;101320.09;5034618;28;20045;-79
2022/04/18 06:41:29;;;;;;;0.22;0.22;;;;;;;22.65;20.79;101313.34;5034922;28;20071;-79
2022/04/18 06:43:54;;;;;;;0.25;0.25;;;;;;;22.65;20.83;101316.88;5050754;28;20049;-79
2022/04/18 06:46:20;;;;;;;0.30;0.22;;;;;;;22.69;20.75;101315.28;5024640;28;20105;-79
2022/04/18 06:48:45;;;;;;;0.30;0.30;;;;;;;22.67;20.71;101317.44;5013838;28;20034;-79
2022/04/18 06:51:11;;;;;;;0.30;0.30;;;;;;;22.70;20.73;101321.59;5014302;28;20018;-79
2022/04/18 06:53:36;;;;;;;0.20;0.20;;;;;;;22.68;20.85;101318.28;5013551;28;20451;-79
2022/04/18 06:58:46;;;;;;;0.30;0.30;;;;;;;22.72;20.86;101324.06;5015023;28;20072;-79
2022/04/18 07:01:11;;;;;;;0.35;0.28;;;;;;;22.74;20.58;101325.47;5014951;28;20034;-79
2022/04/18 07:03:37;;;;;;;0.20;0.20;;;;;;;22.74;20.80;101321.94;5014583;28;20030;-79
2022/04/18 07:06:02;;;;;;;0.30;0.30;;;;;;;22.76;20.75;101330.69;5013406;28;20033;-79
2022/04/18 07:08:28;;;;;;;0.30;0.30;;;;;;;22.77;20.55;101329.63;5014834;28;20053;-79
2022/04/18 07:10:53;;;;;;;0.30;0.30;;;;;;;22.77;20.79;101324.97;5014849;28;20034;-79
2022/04/18 07:13:19;;;;;;;0.32;0.32;;;;;;;22.77;20.78;101324.16;5014187;28;20116;-79
2022/04/18 07:15:44;;;;;;;0.30;0.30;;;;;;;22.76;20.68;101326.03;5014929;28;20061;-79
2022/04/18 07:18:09;;;;;;;0.30;0.30;;;;;;;22.77;20.70;101326.88;5013310;28;20033;-79
2022/04/18 07:20:35;;;;;;;0.30;0.30;;;;;;;22.77;20.66;101322.25;5014500;28;20037;-79
2022/04/18 07:23:00;;;;;;;0.32;0.30;;;;;;;22.76;20.67;101325.22;5014607;28;20441;-79
2022/04/18 07:25:26;;;;;;;0.30;0.30;;;;;;;22.77;20.69;101322.25;5014241;28;20184;-78
2022/04/18 07:27:52;;;;;;;0.65;0.30;;;;;;;22.77;20.66;101324.97;5014057;28;20025;-78
2022/04/18 07:30:17;;;;;;;0.28;0.28;;;;;;;22.76;20.77;101322.50;5014346;28;20022;-78
2022/04/18 07:32:43;;;;;;;0.20;0.20;;;;;;;22.76;20.69;101325.22;5013135;28;20029;-79
2022/04/18 07:35:09;;;;;;;0.25;0.25;;;;;;;22.74;20.86;101325.47;5014120;28;20125;-79
2022/04/18 07:37:35;;;;;;;0.28;0.28;;;;;;;22.75;20.79;101329.84;5014022;28;20114;-78
2022/04/18 07:40:01;;;;;;;0.30;0.30;;;;;;;22.74;20.93;101332.81;5014150;28;20037;-79
2022/04/18 07:42:26;;;;;;;0.50;0.40;;;;;;;22.78;20.84;101333.97;5012759;28;20484;-79
2022/04/18 07:44:51;;;;;;;0.20;0.20;;;;;;;22.73;20.71;101328.44;5013218;28;20083;-79
2022/04/18 07:47:17;;;;;;;0.30;0.30;;;;;;;22.77;20.78;101326.88;5031825;28;20048;-79
2022/04/18 07:49:42;;;;;;;0.20;0.20;;;;;;;22.77;20.84;101333.16;5033464;28;20048;-79
2022/04/18 07:52:08;;;;;;;0.30;0.30;;;;;;;22.78;20.88;101329.34;5033740;28;20022;-79
2022/04/18 07:54:34;;;;;;;0.30;0.30;;;;;;;22.75;20.84;101329.84;5048973;28;20025;-79
2022/04/18 07:57:04;;;;;;;0.30;0.30;;;;;;;22.76;20.97;101331.50;5034056;28;20083;-79
2022/04/18 07:59:31;;;;;;;0.40;0.40;;;;;;;22.79;20.83;101331.00;5034082;28;20079;-81
2022/04/18 08:01:56;;;;;;;0.20;0.20;;;;;;;22.79;20.79;101335.63;5036527;28;20025;-80
2022/04/18 08:04:22;;;;;;;0.30;0.30;;;;;;;22.79;20.76;101330.19;5033605;28;20029;-79
2022/04/18 08:06:47;;;;;;;0.38;0.30;;;;;;;22.78;20.82;101329.34;5032061;28;20022;-79
2022/04/18 08:09:13;;;;;;;0.20;0.20;;;;;;;22.78;20.84;101333.97;5033245;28;20040;-79
2022/04/18 08:11:38;;;;;;;0.35;0.35;;;;;;;22.81;20.79;101336.22;5033215;28;20032;-79
2022/04/18 08:14:03;;;;;;;0.30;0.30;;;;;;;22.83;20.90;101325.88;5033085;28;20018;-79
2022/04/18 08:16:29;;;;;;;0.30;0.30;;;;;;;22.82;21.10;101318.81;5033095;28;20029;-79
2022/04/18 08:18:55;;;;;;;0.52;0.30;;;;;;;22.84;20.80;101324.81;5033238;28;20033;-79
2022/04/18 08:21:20;;;;;;;0.30;0.30;;;;;;;22.82;20.91;101324.25;5034385;28;20029;-79
2022/04/18 08:23:47;;;;;;;0.22;0.22;;;;;;;22.82;20.88;101324.25;5034493;28;20053;-79
2022/04/18 08:26:12;;;;;;;0.30;0.30;;;;;;;22.83;21.05;101325.88;5048606;28;20025;-79
2022/04/18 08:28:38;;;;;;;1.23;0.30;;;;;;;22.86;20.89;101317.22;5031792;28;20041;-79
2022/04/18 08:31:04;;;;;;;0.22;0.22;;;;;;;22.86;20.93;101319.94;5048361;28;20022;-79
2022/04/18 08:33:30;;;;;;;0.32;0.32;;;;;;;22.86;21.01;101319.94;5033331;28;20026;-79
2022/04/18 08:35:58;;;;;;;0.30;0.30;;;;;;;22.88;20.97;101312.34;5048693;28;20032;-79
2022/04/18 08:38:24;;;;;;;0.22;0.22;;;;;;;22.89;20.86;101314.00;5033059;28;20029;-79
2022/04/18 08:40:51;;;;;;;0.20;0.20;;;;;;;22.90;20.81;101310.19;5033671;28;20045;-79
2022/04/18 08:43:17;;;;;;;0.32;0.32;;;;;;;22.90;21.01;101310.19;5031727;28;20543;-79
2022/04/18 08:45:47;;;;;;;0.30;0.30;;;;;;;22.90;21.09;101312.91;5031207;28;20036;-79
2022/04/18 08:53:40;;;;;;;0.22;0.22;;;;;;;22.96;20.71;101314.66;5015890;28;20117;-78
2022/04/18 08:56:06;;;;;;;0.20;0.20;;;;;;;22.94;20.85;101307.78;5016609;28;20472;-78
2022/04/18 08:58:31;;;;;;;0.20;0.20;;;;;;;22.94;20.85;101311.38;5017135;28;20040;-78
2022/04/18 09:00:58;;;;;;;0.40;0.38;;;;;;;22.93;20.71;101309.69;5015664;28;20067;-78
2022/04/18 09:03:23;;;;;;;0.30;0.30;;;;;;;22.96;20.92;101309.22;5015883;28;20080;-79
2022/04/18 09:05:49;;;;;;;0.30;0.30;;;;;;;22.98;20.97;101307.06;5017001;28;20381;-81
2022/04/18 09:08:14;;;;;;;0.43;0.40;;;;;;;22.98;20.91;101312.50;5016658;28;20173;-79
2022/04/18 09:10:41;;;;;;;0.20;0.20;;;;;;;22.97;20.90;101304.56;5016796;28;20029;-80
2022/04/18 09:13:09;;;;;;;0.28;0.28;;;;;;;22.99;20.93;101306.00;5015516;28;20021;-79
2022/04/18 09:15:35;;;;;;;0.22;0.22;;;;;;;22.98;20.96;101301.59;5016202;28;20516;-79
2022/04/18 09:18:18;;;;;;;0.35;0.35;;;;;;;23.03;20.78;101303.59;5016686;28;20100;-79
2022/04/18 09:20:53;;;;;;;0.20;0.20;;;;;;;23.05;20.71;101298.72;5017139;28;20080;-79
2022/04/18 09:23:28;;;;;;;0.85;0.32;;;;;;;23.04;20.83;101299.78;5016176;28;20507;-79
2022/04/18 09:25:54;;;;;;;0.20;0.20;;;;;;;23.05;20.77;101290.53;5016733;28;20030;-81
2022/04/18 09:28:32;;;;;;;0.20;0.20;;;;;;;23.06;20.77;101297.69;5017165;28;20038;-79
2022/04/18 09:31:01;;;;;;;0.20;0.20;;;;;;;23.04;20.74;101292.44;5016329;28;20105;-79
2022/04/18 09:33:38;;;;;;;0.30;0.30;;;;;;;23.10;20.96;101295.28;5016602;28;20033;-79
2022/04/18 09:36:30;;;;;;;0.22;0.20;;;;;;;23.14;20.86;101293.69;5016204;28;20052;-79
2022/04/18 09:38:55;;;;;;;0.30;0.30;;;;;;;23.11;20.81;101291.47;5015017;28;20049;-79
2022/04/18 09:41:28;;;;;;;0.45;0.38;;;;;;;23.09;20.82;101291.72;5015125;28;20084;-80
2022/04/18 09:43:54;;;;;;;0.40;0.20;;;;;;;23.10;20.84;101293.38;5014971;28;20034;-79
2022/04/18 09:46:20;;;;;;;0.20;0.20;;;;;;;23.12;20.73;101287.69;5024628;28;20395;-80
2022/04/18 09:48:47;;;;;;;0.20;0.20;;;;;;;23.13;20.89;101286.59;5051162;28;20021;-79
2022/04/18 09:51:25;;;;;;;0.20;0.20;;;;;;;23.17;20.92;101293.22;5036322;28;20017;-79
2022/04/18 09:53:57;;;;;;;0.38;0.30;;;;;;;23.13;20.73;101289.31;5035786;28;20029;-79
2022/04/18 09:56:24;;;;;;;0.20;0.20;;;;;;;23.14;20.85;101280.88;5034480;28;20029;-79
2022/04/18 09:58:50;;;;;;;0.30;0.30;;;;;;;23.16;20.62;101280.63;5035469;28;20309;-79
2022/04/18 10:01:16;;;;;;;0.30;0.30;;;;;;;23.16;20.62;101276.03;5034083;28;20032;-79
2022/04/18 10:03:43;;;;;;;0.25;0.25;;;;;;;23.18;20.75;101273.03;5035679;28;20041;-79
2022/04/18 10:06:09;;;;;;;0.30;0.30;;;;;;;23.17;20.73;101274.13;5035505;28;20179;-79
2022/04/18 10:08:34;;;;;;;0.20;0.20;;;;;;;23.19;20.77;101269.22;5035670;28;20085;-79
2022/04/18 10:11:00;;;;;;;0.20;0.20;;;;;;;23.18;20.64;101271.16;5035347;28;20052;-79
2022/04/18 10:13:27;;;;;;;0.20;0.20;;;;;;;23.21;20.65;101261.63;5050388;28;20101;-80
2022/04/18 10:15:53;;;;;;;0.20;0.20;;;;;;;23.21;20.54;101264.34;5035119;28;20029;-79
2022/04/18 10:18:18;;;;;;;0.30;0.30;;;;;;;23.22;20.59;101257.84;5035787;28;20033;-79
2022/04/18 10:21:13;;;;;;;0.40;0.20;;;;;;;23.29;20.59;101261.19;5035046;28;20022;-79
2022/04/18 10:24:03;;;;;;;0.30;0.30;;;;;;;23.31;20.45;101255.50;5035267;28;20033;-79
2022/04/18 10:27:03;;;;;;;0.30;0.30;;;;;;;23.27;20.33;101255.19;5034747;28;20452;-79
2022/04/18 10:29:33;;;;;;;0.20;0.20;;;;;;;23.25;20.26;101251.88;5016157;28;20045;-79
2022/04/18 10:32:03;;;;;;;0.20;0.20;;;;;;;23.25;20.49;101255.44;5016492;28;20513;-79
2022/04/18 10:34:31;;;;;;;0.20;0.20;;;;;;;23.26;20.39;101264.41;5032581;28;20042;-79
2022/04/18 10:37:00;;;;;;;0.30;0.20;;;;;;;23.26;20.35;101256.25;5032557;28;20056;-79
2022/04/18 10:39:37;;;;;;;0.10;0.10;;;;;;;23.31;20.22;101256.31;5032504;28;20038;-79
2022/04/18 10:42:22;;;;;;;0.20;0.20;;;;;;;23.32;20.41;101251.66;5032095;28;20132;-79
2022/04/18 10:44:59;;;;;;;0.30;0.30;;;;;;;23.32;20.38;101249.78;5032268;28;20029;-79
2022/04/18 10:47:25;;;;;;;0.30;0.30;;;;;;;23.28;20.29;101254.09;5015287;28;20120;-79
2022/04/18 10:50:16;;;;;;;0.40;0.28;;;;;;;23.31;20.49;101261.78;4996165;28;20612;-79
2022/04/18 10:52:42;;;;;;;0.30;0.30;;;;;;;23.27;20.39;101252.44;5012650;28;20057;-79
2022/04/18 10:55:17;;;;;;;0.20;0.20;;;;;;;23.27;20.24;101249.72;4996235;28;20357;-80
2022/04/18 10:57:43;;;;;;;0.20;0.20;;;;;;;23.27;20.42;101248.88;4997351;28;20030;-79
2022/04/18 11:00:09;;;;;;;0.38;0.38;;;;;;;23.28;20.26;101245.09;5012620;28;20397;-79
2022/04/18 11:02:38;;;;;;;0.20;0.20;;;;;;;23.27;20.48;101241.53;5012267;28;20026;-79
2022/04/18 11:05:04;;;;;;;0.25;0.25;;;;;;;23.28;20.21;101243.19;5012361;28;20033;-79
2022/04/18 11:07:39;;;;;;;0.22;0.20;;;;;;;23.33;20.46;101242.44;5011298;28;20496;-79
2022/04/18 11:10:18;;;;;;;0.30;0.30;;;;;;;23.33;20.38;101243.25;5013215;28;20033;-79
2022/04/18 11:12:44;;;;;;;0.28;0.28;;;;;;;23.31;20.30;101239.94;5013361;28;20022;-79
2022/04/18 11:15:09;;;;;;;0.20;0.20;;;;;;;23.31;20.28;101239.13;5014443;28;20105;-79
2022/04/18 11:17:38;;;;;;;0.25;0.25;;;;;;;23.29;20.15;101244.84;5014152;28;20045;-79
2022/04/18 11:20:27;;;;;;;0.20;0.20;;;;;;;23.34;20.23;101242.19;5012962;28;20084;-79
2022/04/18 11:23:17;;;;;;;0.20;0.20;;;;;;;23.36;20.21;101241.94;5014699;28;20425;-79
2022/04/18 11:26:08;;;;;;;1.13;0.30;;;;;;;23.31;20.31;101245.41;5010141;28;20501;-79
2022/04/18 11:28:46;;;;;;;0.30;0.28;;;;;;;23.28;20.26;101242.34;5014502;28;20092;-79
2022/04/18 11:31:19;;;;;;;0.30;0.28;;;;;;;23.29;20.26;101238.56;5013141;28;20053;-79
2022/04/18 11:33:45;;;;;;;0.20;0.20;;;;;;;23.27;20.44;101237.97;5014221;28;20087;-79
2022/04/18 11:36:11;;;;;;;0.22;0.22;;;;;;;23.25;20.49;101235.53;5014305;28;20424;-79
2022/04/18 11:38:36;;;;;;;0.25;0.25;;;;;;;23.23;20.54;101233.03;5013864;28;20050;-79
2022/04/18 11:41:11;;;;;;;0.57;0.30;;;;;;;23.25;20.43;101230.06;5014109;28;20029;-79
2022/04/18 11:43:37;;;;;;;0.20;0.20;;;;;;;23.23;20.27;101233.03;5012557;28;20077;-79
2022/04/18 11:46:04;;;;;;;0.20;0.20;;;;;;;23.23;20.51;101221.28;5019217;28;20060;-79